Terminal Aerodrome Forecast
Issued by NWS

Home | Current Version | Previous Version | Text Only | Print | Product List | Glossary On
Versions: 1 2 3 4 5 6 7 8 9 10 11 12 13 14 15 16 17 18 19 20
000
FTUS43 KLSX 202300
TAFUIN
TAF
KUIN 202322Z 2100/2124 29009KT P6SM VCTS SCT040CB BKN100
     FM210200 32010KT P6SM BKN040
     FM211500 32013G19KT P6SM FEW040
     FM212300 33010KT P6SM SKC=

USA.gov is the U.S. government's official web portal to all federal, state and local government web resources and services.